createdAt,value
2022-07-25T00:00:10.330Z,20.07
2022-07-25T00:01:03.154Z,20.07
2022-07-25T00:02:03.280Z,20.07
2022-07-25T00:03:02.811Z,20.06
2022-07-25T00:04:03.074Z,20.07
2022-07-25T00:05:02.833Z,20.04
2022-07-25T00:06:13.495Z,20.04
2022-07-25T00:07:04.344Z,20.04
2022-07-25T00:08:02.788Z,20.03
2022-07-25T00:09:02.700Z,20.02
2022-07-25T00:10:02.811Z,20.00
2022-07-25T00:11:02.635Z,19.99
2022-07-25T00:12:11.279Z,19.99
2022-07-25T00:13:03.612Z,19.99
2022-07-25T00:14:02.892Z,19.99
2022-07-25T00:15:03.614Z,19.96
2022-07-25T00:16:02.701Z,19.96
2022-07-25T00:17:02.662Z,19.95
2022-07-25T00:18:09.781Z,19.94
2022-07-25T00:19:02.630Z,19.92
2022-07-25T00:20:02.560Z,19.89
2022-07-25T00:21:02.581Z,19.91
2022-07-25T00:22:03.562Z,19.89
2022-07-25T00:23:09.454Z,19.88
2022-07-25T00:24:23.326Z,19.88
2022-07-25T00:25:02.468Z,19.88
2022-07-25T00:26:05.722Z,19.88
2022-07-25T00:27:02.515Z,19.88
2022-07-25T00:28:09.230Z,19.86
2022-07-25T00:29:02.450Z,19.86
2022-07-25T00:30:02.486Z,19.86
2022-07-25T00:31:04.897Z,19.86
2022-07-25T00:32:02.548Z,19.88
2022-07-25T00:33:09.988Z,19.88
2022-07-25T00:34:02.481Z,19.89
2022-07-25T00:35:02.314Z,19.91
2022-07-25T00:36:02.406Z,19.91
2022-07-25T00:37:02.383Z,19.89
2022-07-25T00:38:02.336Z,19.89
2022-07-25T00:39:09.605Z,19.88
2022-07-25T00:40:02.471Z,19.86
2022-07-25T00:41:02.310Z,19.86
2022-07-25T00:42:02.458Z,19.86
2022-07-25T00:43:02.306Z,19.85
2022-07-25T00:44:08.950Z,19.84
2022-07-25T00:45:02.344Z,19.85
2022-07-25T00:46:02.286Z,19.81
2022-07-25T00:47:02.217Z,19.81
2022-07-25T00:48:02.283Z,19.76
2022-07-25T00:49:08.610Z,19.74
2022-07-25T00:50:03.368Z,19.74
2022-07-25T00:51:02.280Z,19.70
2022-07-25T00:52:02.367Z,19.69
2022-07-25T00:53:02.112Z,19.67
2022-07-25T00:54:12.643Z,19.66
2022-07-25T00:55:02.124Z,19.64
2022-07-25T00:56:02.212Z,19.62
2022-07-25T00:57:02.179Z,19.62
2022-07-25T00:58:02.116Z,19.59
2022-07-25T00:59:13.640Z,19.56
2022-07-25T01:00:02.073Z,19.55
2022-07-25T01:01:02.149Z,19.52
2022-07-25T01:02:03.805Z,19.51
2022-07-25T01:03:06.165Z,19.51
2022-07-25T01:04:09.527Z,19.49
2022-07-25T01:05:02.189Z,19.48
2022-07-25T01:06:01.993Z,19.45
2022-07-25T01:07:02.970Z,19.44
2022-07-25T01:08:01.912Z,19.40
2022-07-25T01:09:02.015Z,19.39
2022-07-25T01:10:09.022Z,19.39
2022-07-25T01:11:02.544Z,19.36
2022-07-25T01:12:02.013Z,19.34
2022-07-25T01:13:02.024Z,19.36
2022-07-25T01:14:02.055Z,19.36
2022-07-25T01:15:02.145Z,19.36
2022-07-25T01:16:08.336Z,19.31
2022-07-25T01:17:01.967Z,19.30
2022-07-25T01:18:01.770Z,19.29
2022-07-25T01:19:01.766Z,19.29
2022-07-25T01:20:15.442Z,19.29
2022-07-25T01:21:01.918Z,19.26
2022-07-25T01:22:12.957Z,19.26
2022-07-25T01:23:01.786Z,19.26
2022-07-25T01:24:02.857Z,19.24
2022-07-25T01:25:01.664Z,19.22
2022-07-25T01:26:01.666Z,19.21
2022-07-25T01:27:01.860Z,19.21
2022-07-25T01:28:08.040Z,19.19
2022-07-25T01:29:01.841Z,19.19
2022-07-25T01:30:02.095Z,19.18
2022-07-25T01:31:02.492Z,19.18
2022-07-25T01:32:01.711Z,19.16
2022-07-25T01:33:11.969Z,19.16
2022-07-25T01:34:01.705Z,19.15
2022-07-25T01:35:01.596Z,19.14
2022-07-25T01:36:01.537Z,19.11
2022-07-25T01:37:01.920Z,19.11
2022-07-25T01:38:01.589Z,19.09
2022-07-25T01:39:44.813Z,19.11
2022-07-25T01:40:45.176Z,19.08
2022-07-25T01:41:44.796Z,19.04
2022-07-25T01:42:45.787Z,19.04
2022-07-25T01:43:44.764Z,19.02
2022-07-25T01:44:51.870Z,19.04
2022-07-25T01:45:44.672Z,19.02
2022-07-25T01:46:44.771Z,19.00
2022-07-25T01:47:44.692Z,18.98
2022-07-25T01:48:44.728Z,18.98
2022-07-25T01:49:50.993Z,18.96
2022-07-25T01:50:44.919Z,18.96
2022-07-25T01:51:44.700Z,18.96
2022-07-25T01:52:44.649Z,18.93
2022-07-25T01:53:45.688Z,18.95
2022-07-25T01:55:27.925Z,18.95
2022-07-25T01:56:27.860Z,18.95
2022-07-25T01:57:30.939Z,18.93
2022-07-25T01:58:27.671Z,18.92
2022-07-25T01:59:27.661Z,18.92
2022-07-25T02:00:37.909Z,18.92
2022-07-25T02:01:28.119Z,18.90
2022-07-25T02:02:28.403Z,18.90
2022-07-25T02:03:39.523Z,18.88
2022-07-25T02:04:28.337Z,18.88
2022-07-25T02:05:33.827Z,18.88
2022-07-25T02:06:28.215Z,18.89
2022-07-25T02:07:27.612Z,18.89
2022-07-25T02:08:27.818Z,18.88
2022-07-25T02:09:27.527Z,18.89
2022-07-25T02:10:34.222Z,18.86
2022-07-25T02:11:28.032Z,18.86
2022-07-25T02:12:28.262Z,18.83
2022-07-25T02:13:27.534Z,18.81
2022-07-25T02:14:27.691Z,18.80
2022-07-25T02:15:40.289Z,18.80
2022-07-25T02:16:29.004Z,18.77
2022-07-25T02:17:28.890Z,18.78
2022-07-25T02:18:28.653Z,18.77
2022-07-25T02:19:27.501Z,18.77
2022-07-25T02:20:27.741Z,18.75
2022-07-25T02:21:36.020Z,18.75
2022-07-25T02:22:27.305Z,18.73
2022-07-25T02:23:27.447Z,18.73
2022-07-25T02:24:28.597Z,18.73
2022-07-25T02:25:27.385Z,18.71
2022-07-25T02:26:33.780Z,18.70
2022-07-25T02:27:27.607Z,18.68
2022-07-25T02:28:27.708Z,18.65
2022-07-25T02:29:27.477Z,18.63
2022-07-25T02:30:27.272Z,18.62
2022-07-25T02:31:27.510Z,18.65
2022-07-25T02:32:33.581Z,18.62
2022-07-25T02:33:27.187Z,18.60
2022-07-25T02:34:27.222Z,18.58
2022-07-25T02:35:27.214Z,18.58
2022-07-25T02:36:27.205Z,18.58
2022-07-25T02:37:37.548Z,18.56
2022-07-25T02:38:27.514Z,18.55
2022-07-25T02:39:27.235Z,18.53
2022-07-25T02:40:27.077Z,18.55
2022-07-25T02:41:27.174Z,18.55
2022-07-25T02:42:33.429Z,18.55
2022-07-25T02:43:27.307Z,18.55
2022-07-25T02:44:27.096Z,18.53
2022-07-25T02:45:27.033Z,18.53
2022-07-25T02:46:27.096Z,18.53
2022-07-25T02:47:26.989Z,18.52
2022-07-25T02:48:34.082Z,18.50
2022-07-25T02:49:29.239Z,18.49
2022-07-25T02:50:27.209Z,18.49
2022-07-25T02:51:27.003Z,18.49
2022-07-25T02:52:26.932Z,18.49
2022-07-25T02:53:55.952Z,18.50
2022-07-25T02:54:28.488Z,18.45
2022-07-25T02:55:26.956Z,18.45
2022-07-25T02:56:49.472Z,18.45
2022-07-25T02:57:28.371Z,18.44
2022-07-25T02:58:33.196Z,18.44
2022-07-25T02:59:32.231Z,18.45
2022-07-25T03:00:28.345Z,18.45
2022-07-25T03:01:39.615Z,18.44
2022-07-25T03:02:27.732Z,18.43
2022-07-25T03:03:26.810Z,18.41
2022-07-25T03:04:34.898Z,18.38
2022-07-25T03:05:26.818Z,18.38
2022-07-25T03:06:27.205Z,18.38
2022-07-25T03:07:37.567Z,18.35
2022-07-25T03:08:38.216Z,18.34
2022-07-25T03:09:27.862Z,18.35
2022-07-25T03:10:33.621Z,18.33
2022-07-25T03:11:26.910Z,18.33
2022-07-25T03:12:26.998Z,18.34
2022-07-25T03:13:26.977Z,18.33
2022-07-25T03:14:27.689Z,18.33
2022-07-25T03:15:33.547Z,18.31
2022-07-25T03:16:29.456Z,18.31
2022-07-25T03:17:26.754Z,18.31
2022-07-25T03:18:26.648Z,18.33
2022-07-25T03:19:27.729Z,18.33
2022-07-25T03:20:27.125Z,18.35
2022-07-25T03:21:35.146Z,18.35
2022-07-25T03:22:26.616Z,18.34
2022-07-25T03:23:26.649Z,18.34
2022-07-25T03:24:26.649Z,18.34
2022-07-25T03:25:26.836Z,18.33
2022-07-25T03:26:33.149Z,18.34
2022-07-25T03:27:27.162Z,18.33
2022-07-25T03:28:26.469Z,18.31
2022-07-25T03:29:26.520Z,18.33
2022-07-25T03:30:26.639Z,18.33
2022-07-25T03:31:28.033Z,18.34
2022-07-25T03:32:35.283Z,18.35
2022-07-25T03:33:26.503Z,18.37
2022-07-25T03:34:26.397Z,18.38
2022-07-25T03:35:26.956Z,18.41
2022-07-25T03:36:32.912Z,18.43
2022-07-25T03:37:27.237Z,18.44
2022-07-25T03:38:32.757Z,18.44
2022-07-25T03:39:26.371Z,18.44
2022-07-25T03:40:30.455Z,18.44
2022-07-25T03:41:27.837Z,18.44
2022-07-25T03:42:26.895Z,18.44
2022-07-25T03:43:26.409Z,18.44
2022-07-25T03:44:36.643Z,18.43
2022-07-25T03:45:26.457Z,18.43
2022-07-25T03:46:26.413Z,18.43
2022-07-25T03:47:26.361Z,18.43
2022-07-25T03:48:27.554Z,18.41
2022-07-25T03:49:32.767Z,18.40
2022-07-25T03:50:30.522Z,18.40
2022-07-25T03:51:30.167Z,18.41
2022-07-25T03:52:35.804Z,18.41
2022-07-25T03:53:26.202Z,18.38
2022-07-25T03:54:26.129Z,18.38
2022-07-25T03:55:33.177Z,18.40
2022-07-25T03:56:26.175Z,18.40
2022-07-25T03:57:26.158Z,18.40
2022-07-25T03:58:26.166Z,18.40
2022-07-25T03:59:26.092Z,18.38
2022-07-25T04:00:26.265Z,18.38
2022-07-25T04:01:32.817Z,18.37
2022-07-25T04:02:26.312Z,18.38
2022-07-25T04:03:26.039Z,18.38
2022-07-25T04:04:26.081Z,18.40
2022-07-25T04:05:26.135Z,18.40
2022-07-25T04:06:32.333Z,18.41
2022-07-25T04:07:27.930Z,18.40
2022-07-25T04:08:26.182Z,18.41
2022-07-25T04:09:26.019Z,18.43
2022-07-25T04:10:27.563Z,18.43
2022-07-25T04:11:29.835Z,18.45
2022-07-25T04:12:36.774Z,18.44
2022-07-25T04:13:26.024Z,18.47
2022-07-25T04:14:25.968Z,18.49
2022-07-25T04:15:26.200Z,18.50
2022-07-25T04:16:27.787Z,18.53
2022-07-25T04:17:32.397Z,18.53
2022-07-25T04:18:28.618Z,18.53
2022-07-25T04:19:27.722Z,18.58
2022-07-25T04:20:25.898Z,18.59
2022-07-25T04:21:26.187Z,18.59
2022-07-25T04:22:33.371Z,18.60
2022-07-25T04:23:26.143Z,18.60
2022-07-25T04:24:25.773Z,18.62
2022-07-25T04:25:25.735Z,18.65
2022-07-25T04:26:25.734Z,18.62
2022-07-25T04:27:25.724Z,18.65
2022-07-25T04:28:33.398Z,18.65
2022-07-25T04:29:25.710Z,18.66
2022-07-25T04:30:25.758Z,18.66
2022-07-25T04:31:25.798Z,18.68
2022-07-25T04:32:25.720Z,18.70
2022-07-25T04:33:25.663Z,18.73
2022-07-25T04:34:34.653Z,18.71
2022-07-25T04:35:25.785Z,18.74
2022-07-25T04:36:25.620Z,18.77
2022-07-25T04:37:25.661Z,18.78
2022-07-25T04:38:25.698Z,18.80
2022-07-25T04:39:31.954Z,18.84
2022-07-25T04:40:26.071Z,18.86
2022-07-25T04:41:25.590Z,18.89
2022-07-25T04:42:25.573Z,18.90
2022-07-25T04:43:25.516Z,18.93
2022-07-25T04:44:32.348Z,18.96
2022-07-25T04:45:25.619Z,18.98
2022-07-25T04:46:25.484Z,19.02
2022-07-25T04:47:25.496Z,19.04
2022-07-25T04:48:25.534Z,19.08
2022-07-25T04:49:32.435Z,19.11
2022-07-25T04:50:25.469Z,19.15
2022-07-25T04:51:25.421Z,19.19
2022-07-25T04:52:25.472Z,19.24
2022-07-25T04:53:25.619Z,19.27
2022-07-25T04:54:36.761Z,19.30
2022-07-25T04:55:25.481Z,19.33
2022-07-25T04:56:25.487Z,19.34
2022-07-25T04:57:25.732Z,19.39
2022-07-25T04:58:27.191Z,19.41
2022-07-25T04:59:33.380Z,19.45
2022-07-25T05:00:25.819Z,19.47
2022-07-25T05:01:25.372Z,19.49
2022-07-25T05:02:25.652Z,19.54
2022-07-25T05:03:25.280Z,19.56
2022-07-25T05:04:25.356Z,19.59
2022-07-25T05:05:31.810Z,19.63
2022-07-25T05:06:25.322Z,19.64
2022-07-25T05:07:25.302Z,19.69
2022-07-25T05:08:25.816Z,19.71
2022-07-25T05:09:25.300Z,19.74
2022-07-25T05:10:25.190Z,19.79
2022-07-25T05:11:31.741Z,19.85
2022-07-25T05:12:25.258Z,19.88
2022-07-25T05:13:25.118Z,19.91
2022-07-25T05:14:25.756Z,19.95
2022-07-25T05:15:25.141Z,19.96
2022-07-25T05:17:11.525Z,20.04
2022-07-25T05:18:11.931Z,20.07
2022-07-25T05:19:08.799Z,20.09
2022-07-25T05:20:09.236Z,20.11
2022-07-25T05:21:08.891Z,20.16
2022-07-25T05:22:16.746Z,20.19
2022-07-25T05:23:12.314Z,20.24
2022-07-25T05:24:09.977Z,20.26
2022-07-25T05:25:13.272Z,20.29
2022-07-25T05:26:13.895Z,20.32
2022-07-25T05:27:19.168Z,20.36
2022-07-25T05:28:10.397Z,20.39
2022-07-25T05:29:30.313Z,20.41
2022-07-25T05:30:08.858Z,20.44
2022-07-25T05:31:09.088Z,20.48
2022-07-25T05:32:15.890Z,20.55
2022-07-25T05:33:10.245Z,20.56
2022-07-25T05:34:09.978Z,20.59
2022-07-25T05:35:10.321Z,20.62
2022-07-25T05:36:08.800Z,20.63
2022-07-25T05:37:15.176Z,20.66
2022-07-25T05:38:10.343Z,20.69
2022-07-25T05:39:08.538Z,20.72
2022-07-25T05:40:08.558Z,20.75
2022-07-25T05:41:09.595Z,20.78
2022-07-25T05:42:14.996Z,20.82
2022-07-25T05:43:08.528Z,20.88
2022-07-25T05:44:09.963Z,20.95
2022-07-25T05:45:08.477Z,20.99
2022-07-25T05:46:08.526Z,21.02
2022-07-25T05:47:14.810Z,21.06
2022-07-25T05:48:08.452Z,21.11
2022-07-25T05:49:08.522Z,21.15
2022-07-25T05:50:08.377Z,21.18
2022-07-25T05:51:08.407Z,21.20
2022-07-25T05:52:12.896Z,21.22
2022-07-25T05:53:15.749Z,21.29
2022-07-25T05:54:08.814Z,21.32
2022-07-25T05:55:08.342Z,21.35
2022-07-25T05:56:08.353Z,21.36
2022-07-25T05:57:08.346Z,21.40
2022-07-25T05:58:08.320Z,21.45
2022-07-25T05:59:14.716Z,21.48
2022-07-25T06:00:08.375Z,21.52
2022-07-25T06:01:08.273Z,21.54
2022-07-25T06:02:08.436Z,21.58
2022-07-25T06:03:08.844Z,21.61
2022-07-25T06:04:08.733Z,21.64
2022-07-25T06:05:14.652Z,21.70
2022-07-25T06:06:08.419Z,21.72
2022-07-25T06:07:10.057Z,21.77
2022-07-25T06:08:08.228Z,21.79
2022-07-25T06:09:08.520Z,21.80
2022-07-25T06:10:14.601Z,21.85
2022-07-25T06:11:08.953Z,21.89
2022-07-25T06:12:08.305Z,21.93
2022-07-25T06:13:08.139Z,21.98
2022-07-25T06:14:08.416Z,21.99
2022-07-25T06:15:12.471Z,22.00
2022-07-25T06:16:21.736Z,22.04
2022-07-25T06:17:08.276Z,22.07
2022-07-25T06:18:08.058Z,22.10
2022-07-25T06:19:08.141Z,22.13
2022-07-25T06:20:08.000Z,22.14
2022-07-25T06:21:08.009Z,22.18
2022-07-25T06:22:14.790Z,22.22
2022-07-25T06:23:08.075Z,22.23
2022-07-25T06:24:12.226Z,22.28
2022-07-25T06:25:08.189Z,22.30
2022-07-25T06:26:08.341Z,22.32
2022-07-25T06:27:07.923Z,22.36
2022-07-25T06:28:14.284Z,22.39
2022-07-25T06:29:08.042Z,22.43
2022-07-25T06:30:18.596Z,22.45
2022-07-25T06:31:09.501Z,22.48
2022-07-25T06:32:07.861Z,22.51
2022-07-25T06:33:19.023Z,22.54
2022-07-25T06:34:08.213Z,22.57
2022-07-25T06:35:08.269Z,22.59
2022-07-25T06:36:07.884Z,22.63
2022-07-25T06:37:08.794Z,22.68
2022-07-25T06:38:07.799Z,22.72
2022-07-25T06:39:25.915Z,22.75
2022-07-25T06:40:07.854Z,22.78
2022-07-25T06:41:07.993Z,22.81
2022-07-25T06:42:07.729Z,22.84
2022-07-25T06:43:07.702Z,22.90
2022-07-25T06:44:08.336Z,22.93
2022-07-25T06:45:14.969Z,22.99
2022-07-25T06:46:07.934Z,23.02
2022-07-25T06:47:07.949Z,23.06
2022-07-25T06:48:08.659Z,23.09
2022-07-25T06:49:07.744Z,23.13
2022-07-25T06:50:18.232Z,23.17
2022-07-25T06:51:08.094Z,23.20
2022-07-25T06:52:07.623Z,23.23
2022-07-25T06:53:07.660Z,23.24
2022-07-25T06:54:07.923Z,23.25
2022-07-25T06:55:07.631Z,23.27
2022-07-25T06:56:17.604Z,23.27
2022-07-25T06:57:07.564Z,23.31
2022-07-25T06:58:07.575Z,23.36
2022-07-25T06:59:11.607Z,23.39
2022-07-25T07:00:07.505Z,23.44
2022-07-25T07:01:13.996Z,23.50
2022-07-25T07:02:07.533Z,23.58
2022-07-25T07:03:07.602Z,23.61
2022-07-25T07:04:07.923Z,23.63
2022-07-25T07:05:07.479Z,23.69
2022-07-25T07:06:07.453Z,23.73
2022-07-25T07:07:07.469Z,23.77
2022-07-25T07:08:11.763Z,23.80
2022-07-25T07:09:07.382Z,23.83
2022-07-25T07:10:07.449Z,23.87
2022-07-25T07:11:07.444Z,23.92
2022-07-25T07:12:13.848Z,23.93
2022-07-25T07:13:07.758Z,23.98
2022-07-25T07:14:07.639Z,23.99
2022-07-25T07:15:07.318Z,24.02
2022-07-25T07:16:07.352Z,24.05
2022-07-25T07:17:07.327Z,24.08
2022-07-25T07:18:14.026Z,24.11
2022-07-25T07:19:29.868Z,24.14
2022-07-25T07:20:07.237Z,24.18
2022-07-25T07:21:07.253Z,24.21
2022-07-25T07:22:07.217Z,24.26
2022-07-25T07:23:07.403Z,24.28
2022-07-25T07:24:23.474Z,24.30
2022-07-25T07:25:08.732Z,24.35
2022-07-25T07:26:07.174Z,24.36
2022-07-25T07:27:07.125Z,24.39
2022-07-25T07:28:07.240Z,24.43
2022-07-25T07:29:15.929Z,24.48
2022-07-25T07:30:07.283Z,24.53
2022-07-25T07:31:16.405Z,24.55
2022-07-25T07:32:08.778Z,24.60
2022-07-25T07:33:07.159Z,24.65
2022-07-25T07:34:16.271Z,24.70
2022-07-25T07:35:07.397Z,24.73
2022-07-25T07:36:07.086Z,24.78
2022-07-25T07:37:18.718Z,24.81
2022-07-25T07:38:07.902Z,24.86
2022-07-25T07:39:13.394Z,24.88
2022-07-25T07:40:06.995Z,24.91
2022-07-25T07:41:10.897Z,24.96
2022-07-25T07:42:07.005Z,25.01
2022-07-25T07:43:07.338Z,25.03
2022-07-25T07:44:06.943Z,25.07
2022-07-25T07:45:13.256Z,25.08
2022-07-25T07:46:06.976Z,25.10
2022-07-25T07:47:07.242Z,25.17
2022-07-25T07:48:08.476Z,25.22
2022-07-25T07:49:11.766Z,25.28
2022-07-25T07:50:06.866Z,25.31
2022-07-25T07:51:13.222Z,25.35
2022-07-25T07:52:06.930Z,25.41
2022-07-25T07:53:07.341Z,25.47
2022-07-25T07:54:06.790Z,25.50
2022-07-25T07:55:06.923Z,25.54
2022-07-25T07:56:13.357Z,25.55
2022-07-25T07:57:06.796Z,25.55
2022-07-25T07:58:06.902Z,25.60
2022-07-25T07:59:07.138Z,25.63
2022-07-25T08:00:06.733Z,25.66
2022-07-25T08:01:06.709Z,25.70
2022-07-25T08:02:13.130Z,25.72
2022-07-25T08:03:06.811Z,25.75
2022-07-25T08:04:06.704Z,25.80
2022-07-25T08:05:06.667Z,25.81
2022-07-25T08:06:06.750Z,25.84
2022-07-25T08:07:06.770Z,25.87
2022-07-25T08:08:13.046Z,25.91
2022-07-25T08:09:06.976Z,25.93
2022-07-25T08:10:07.539Z,25.96
2022-07-25T08:11:06.753Z,26.03
2022-07-25T08:12:10.516Z,26.07
2022-07-25T08:13:12.863Z,26.13
2022-07-25T08:14:07.123Z,26.16
2022-07-25T08:15:06.669Z,26.19
2022-07-25T08:16:06.568Z,26.19
2022-07-25T08:17:06.541Z,26.22
2022-07-25T08:18:06.553Z,26.22
2022-07-25T08:19:14.695Z,26.23
2022-07-25T08:20:35.257Z,26.26
2022-07-25T08:21:08.443Z,26.29
2022-07-25T08:22:06.495Z,26.31
2022-07-25T08:23:06.490Z,26.34
2022-07-25T08:24:07.144Z,26.34
2022-07-25T08:25:12.732Z,26.37
2022-07-25T08:26:06.389Z,26.38
2022-07-25T08:27:06.382Z,26.44
2022-07-25T08:28:06.476Z,26.48
2022-07-25T08:29:18.812Z,26.52
2022-07-25T08:30:08.258Z,26.56
2022-07-25T08:31:12.736Z,26.62
2022-07-25T08:32:06.321Z,26.66
2022-07-25T08:33:06.688Z,26.71
2022-07-25T08:34:13.001Z,26.77
2022-07-25T08:35:11.245Z,26.84
2022-07-25T08:36:07.821Z,26.92
2022-07-25T08:37:13.443Z,26.96
2022-07-25T08:38:06.271Z,26.99
2022-07-25T08:39:06.230Z,27.03
2022-07-25T08:40:06.525Z,27.02
2022-07-25T08:41:06.267Z,27.07
2022-07-25T08:42:12.886Z,27.08
2022-07-25T08:43:06.205Z,27.10
2022-07-25T08:44:06.475Z,27.12
2022-07-25T08:45:08.608Z,27.21
2022-07-25T08:46:06.237Z,27.26
2022-07-25T08:47:12.514Z,27.27
2022-07-25T08:48:07.144Z,27.32
2022-07-25T08:49:06.212Z,27.37
2022-07-25T08:50:06.108Z,27.44
2022-07-25T08:51:06.185Z,27.49
2022-07-25T08:52:12.961Z,27.59
2022-07-25T08:53:31.725Z,27.65
2022-07-25T08:54:07.307Z,27.71
2022-07-25T08:55:06.058Z,27.74
2022-07-25T08:56:11.546Z,27.78
2022-07-25T08:57:07.506Z,27.82
2022-07-25T08:58:16.502Z,27.83
2022-07-25T08:59:06.021Z,27.85
2022-07-25T09:00:05.938Z,27.86
2022-07-25T09:01:05.976Z,27.90
2022-07-25T09:02:06.071Z,27.92
2022-07-25T09:03:12.743Z,27.98
2022-07-25T09:04:06.317Z,28.04
2022-07-25T09:05:05.951Z,28.10
2022-07-25T09:06:05.882Z,28.15
2022-07-25T09:07:09.951Z,28.23
2022-07-25T09:08:05.899Z,28.29
2022-07-25T09:09:12.349Z,28.32
2022-07-25T09:10:07.981Z,28.35
2022-07-25T09:11:05.794Z,28.41
2022-07-25T09:12:05.937Z,28.42
2022-07-25T09:13:05.827Z,28.45
2022-07-25T09:14:06.914Z,28.45
2022-07-25T09:15:16.199Z,28.51
2022-07-25T09:16:05.917Z,28.51
2022-07-25T09:17:06.080Z,28.54
2022-07-25T09:18:05.761Z,28.57
2022-07-25T09:19:05.776Z,28.64
2022-07-25T09:20:05.765Z,28.67
2022-07-25T09:21:12.636Z,28.72
2022-07-25T09:22:10.298Z,28.76
2022-07-25T09:23:05.692Z,28.79
2022-07-25T09:24:05.825Z,28.85
2022-07-25T09:25:05.811Z,28.88
2022-07-25T09:26:12.010Z,28.88
2022-07-25T09:27:11.170Z,28.91
2022-07-25T09:28:06.147Z,28.94
2022-07-25T09:29:09.095Z,28.98
2022-07-25T09:30:05.632Z,29.01
2022-07-25T09:31:05.774Z,29.05
2022-07-25T09:32:11.983Z,29.08
2022-07-25T09:33:08.373Z,29.10
2022-07-25T09:34:05.955Z,29.13
2022-07-25T09:35:05.758Z,29.16
2022-07-25T09:36:05.791Z,29.23
2022-07-25T09:37:12.463Z,29.27
2022-07-25T09:38:06.571Z,29.31
2022-07-25T09:39:05.863Z,29.31
2022-07-25T09:40:05.829Z,29.27
2022-07-25T09:41:05.769Z,29.31
2022-07-25T09:42:12.300Z,29.34
2022-07-25T09:43:05.824Z,29.36
2022-07-25T09:44:06.312Z,29.38
2022-07-25T09:45:05.859Z,29.44
2022-07-25T09:46:09.980Z,29.49
2022-07-25T09:47:06.140Z,29.51
2022-07-25T09:48:13.227Z,29.53
2022-07-25T09:49:06.180Z,29.57
2022-07-25T09:50:05.994Z,29.61
2022-07-25T09:51:05.427Z,29.65
2022-07-25T09:52:06.575Z,29.72
2022-07-25T09:53:05.652Z,29.79
2022-07-25T09:54:17.497Z,29.82
2022-07-25T09:55:05.455Z,29.87
2022-07-25T09:56:08.175Z,29.94
2022-07-25T09:57:05.678Z,29.98
2022-07-25T09:58:05.309Z,30.00
2022-07-25T09:59:11.687Z,30.05
2022-07-25T10:00:06.324Z,30.10
2022-07-25T10:01:05.842Z,30.09
2022-07-25T10:02:05.821Z,30.09
2022-07-25T10:03:05.680Z,30.06
2022-07-25T10:04:06.977Z,30.00
2022-07-25T10:05:13.433Z,30.02
2022-07-25T10:06:05.147Z,30.03
2022-07-25T10:07:06.120Z,30.05
2022-07-25T10:08:06.160Z,30.05
2022-07-25T10:09:05.101Z,29.98
2022-07-25T10:10:11.908Z,29.97
2022-07-25T10:11:05.099Z,30.12
2022-07-25T10:12:05.176Z,30.24
2022-07-25T10:13:09.718Z,30.23
2022-07-25T10:14:06.953Z,30.25
2022-07-25T10:15:11.314Z,30.23
2022-07-25T10:16:06.629Z,30.24
2022-07-25T10:17:05.360Z,30.32
2022-07-25T10:18:05.076Z,30.43
2022-07-25T10:19:05.087Z,30.51
2022-07-25T10:20:11.391Z,30.57
2022-07-25T10:21:22.868Z,30.66
2022-07-25T10:22:10.402Z,30.69
2022-07-25T10:23:05.000Z,30.72
2022-07-25T10:24:05.583Z,30.78
2022-07-25T10:25:11.625Z,30.83
2022-07-25T10:26:05.098Z,30.94
2022-07-25T10:27:05.184Z,31.03
2022-07-25T10:28:04.947Z,31.10
2022-07-25T10:29:04.952Z,31.20
2022-07-25T10:30:12.198Z,31.22
2022-07-25T10:31:04.966Z,31.27
2022-07-25T10:32:04.844Z,31.25
2022-07-25T10:33:04.971Z,31.28
2022-07-25T10:34:05.084Z,31.29
2022-07-25T10:35:11.193Z,31.36
2022-07-25T10:36:05.169Z,31.37
2022-07-25T10:37:04.767Z,31.33
2022-07-25T10:38:04.852Z,31.34
2022-07-25T10:39:08.675Z,31.39
2022-07-25T10:40:04.719Z,31.43
2022-07-25T10:41:11.053Z,31.47
2022-07-25T10:42:04.693Z,31.54
2022-07-25T10:43:04.765Z,31.62
2022-07-25T10:44:09.012Z,31.66
2022-07-25T10:45:04.687Z,31.69
2022-07-25T10:46:26.749Z,31.66
2022-07-25T10:47:04.969Z,31.66
2022-07-25T10:48:05.674Z,31.70
2022-07-25T10:49:04.959Z,31.74
2022-07-25T10:50:25.200Z,31.77
2022-07-25T10:51:13.542Z,31.81
2022-07-25T10:52:08.729Z,31.85
2022-07-25T10:53:04.641Z,31.87
2022-07-25T10:54:04.562Z,31.89
2022-07-25T10:55:04.565Z,31.92
2022-07-25T10:56:06.499Z,31.92
2022-07-25T10:57:11.595Z,31.93
2022-07-25T10:58:17.081Z,31.96
2022-07-25T10:59:06.256Z,31.99
2022-07-25T11:00:04.473Z,32.00
2022-07-25T11:01:04.522Z,32.01
2022-07-25T11:02:05.100Z,32.08
2022-07-25T11:03:13.444Z,32.11
2022-07-25T11:04:06.834Z,32.15
2022-07-25T11:05:04.427Z,32.19
2022-07-25T11:06:04.379Z,32.19
2022-07-25T11:07:04.631Z,32.23
2022-07-25T11:08:21.078Z,32.26
2022-07-25T11:09:17.493Z,32.30
2022-07-25T11:10:05.876Z,32.38
2022-07-25T11:11:04.371Z,32.38
2022-07-25T11:12:05.234Z,32.43
2022-07-25T11:13:04.622Z,32.48
2022-07-25T11:14:10.597Z,32.55
2022-07-25T11:15:04.250Z,32.64
2022-07-25T11:16:05.234Z,32.71
2022-07-25T11:17:04.313Z,32.77
2022-07-25T11:18:04.269Z,32.83
2022-07-25T11:19:04.601Z,32.93
2022-07-25T11:20:19.213Z,32.97
2022-07-25T11:21:06.688Z,33.04
2022-07-25T11:22:04.324Z,33.09
2022-07-25T11:23:04.172Z,33.09
2022-07-25T11:24:04.192Z,33.15
2022-07-25T11:25:10.431Z,33.11
2022-07-25T11:26:05.331Z,33.07
2022-07-25T11:27:07.280Z,33.05
2022-07-25T11:28:05.670Z,33.07
2022-07-25T11:29:04.497Z,33.11
2022-07-25T11:30:04.047Z,33.17
2022-07-25T11:31:10.887Z,33.24
2022-07-25T11:32:06.476Z,33.37
2022-07-25T11:33:04.054Z,33.43
2022-07-25T11:34:04.045Z,33.49
2022-07-25T11:35:04.059Z,33.46
2022-07-25T11:36:04.005Z,33.42
2022-07-25T11:37:10.339Z,33.34
2022-07-25T11:38:04.042Z,33.34
2022-07-25T11:39:04.285Z,33.32
2022-07-25T11:40:03.994Z,33.32
2022-07-25T11:41:03.987Z,33.27
2022-07-25T11:42:04.022Z,33.23
2022-07-25T11:43:11.208Z,33.27
2022-07-25T11:44:03.897Z,33.37
2022-07-25T11:45:03.918Z,33.42
2022-07-25T11:46:04.080Z,33.50
2022-07-25T11:47:03.957Z,33.55
2022-07-25T11:48:10.227Z,33.52
2022-07-25T11:49:04.388Z,33.47
2022-07-25T11:50:07.714Z,33.43
2022-07-25T11:51:03.984Z,33.34
2022-07-25T11:52:03.893Z,33.31
2022-07-25T11:53:10.630Z,33.28
2022-07-25T11:54:03.795Z,33.31
2022-07-25T11:55:03.797Z,33.36
2022-07-25T11:56:19.516Z,33.46
2022-07-25T11:57:05.737Z,33.55
2022-07-25T11:58:03.822Z,33.61
2022-07-25T11:59:10.812Z,33.64
2022-07-25T12:00:03.712Z,33.57
2022-07-25T12:01:03.689Z,33.58
2022-07-25T12:02:03.986Z,33.55
2022-07-25T12:03:03.834Z,33.47
2022-07-25T12:04:09.986Z,33.40
2022-07-25T12:05:03.723Z,33.42
2022-07-25T12:06:07.817Z,33.47
2022-07-25T12:07:03.625Z,33.50
2022-07-25T12:08:03.666Z,33.50
2022-07-25T12:09:03.840Z,33.49
2022-07-25T12:10:10.009Z,33.49
2022-07-25T12:11:03.615Z,33.52
2022-07-25T12:12:03.565Z,33.50
2022-07-25T12:13:03.601Z,33.47
2022-07-25T12:14:03.571Z,33.52
2022-07-25T12:15:03.602Z,33.59
2022-07-25T12:16:09.800Z,33.65
2022-07-25T12:17:03.519Z,33.64
2022-07-25T12:18:03.525Z,33.71
2022-07-25T12:19:03.765Z,33.79
2022-07-25T12:20:06.741Z,33.86
2022-07-25T12:21:15.512Z,33.99
2022-07-25T12:22:07.243Z,34.14
2022-07-25T12:23:03.649Z,34.11
2022-07-25T12:24:03.473Z,34.06
2022-07-25T12:25:03.434Z,34.05
2022-07-25T12:26:03.392Z,34.03
2022-07-25T12:27:09.822Z,33.98
2022-07-25T12:28:03.567Z,33.90
2022-07-25T12:29:03.568Z,33.87
2022-07-25T12:30:03.556Z,33.79
2022-07-25T12:31:03.489Z,33.79
2022-07-25T12:32:03.836Z,33.86
2022-07-25T12:33:49.592Z,33.95
2022-07-25T12:34:49.654Z,34.02
2022-07-25T12:35:49.577Z,34.11
2022-07-25T12:36:49.563Z,34.10
2022-07-25T12:37:49.555Z,34.11
2022-07-25T12:38:58.504Z,34.13
2022-07-25T12:39:49.502Z,34.08
2022-07-25T12:40:49.575Z,34.10
2022-07-25T12:41:49.495Z,34.14
2022-07-25T12:42:49.585Z,34.17
2022-07-25T12:43:49.455Z,34.21
2022-07-25T12:44:56.134Z,34.27
2022-07-25T12:45:49.598Z,34.40
2022-07-25T12:46:49.774Z,34.55
2022-07-25T12:47:49.418Z,34.66
2022-07-25T12:48:49.420Z,34.80
2022-07-25T12:49:49.332Z,34.85
2022-07-25T12:50:56.265Z,34.93
2022-07-25T12:51:50.794Z,34.96
2022-07-25T12:52:49.391Z,34.99
2022-07-25T12:53:49.348Z,35.07
2022-07-25T12:54:49.570Z,35.05